sensor_id;sensor_type;location;lat;lon;timestamp;pressure;altitude;pressure_sealevel;temperature
20490;BMP280;10403;54.092;12.122;2023-08-20T00:00:13;101976.91;;;24.99
20490;BMP280;10403;54.092;12.122;2023-08-20T00:02:46;102024.44;;;25.27
20490;BMP280;10403;54.092;12.122;2023-08-20T00:05:15;101972.59;;;24.97
20490;BMP280;10403;54.092;12.122;2023-08-20T00:07:42;102029.66;;;25.30
20490;BMP280;10403;54.092;12.122;2023-08-20T00:10:09;102032.25;;;25.32
20490;BMP280;10403;54.092;12.122;2023-08-20T00:12:37;102000.09;;;25.16
20490;BMP280;10403;54.092;12.122;2023-08-20T00:15:05;101985.56;;;25.04
20490;BMP280;10403;54.092;12.122;2023-08-20T00:17:35;102026.03;;;25.31
20490;BMP280;10403;54.092;12.122;2023-08-20T00:20:07;101991.59;;;25.08
20490;BMP280;10403;54.092;12.122;2023-08-20T00:22:41;101986.66;;;25.00
20490;BMP280;10403;54.092;12.122;2023-08-20T00:25:14;102060.09;;;25.45
20490;BMP280;10403;54.092;12.122;2023-08-20T00:27:43;101968.75;;;24.85
20490;BMP280;10403;54.092;12.122;2023-08-20T00:30:11;102017.03;;;25.17
20490;BMP280;10403;54.092;12.122;2023-08-20T00:32:39;101985.59;;;24.87
20490;BMP280;10403;54.092;12.122;2023-08-20T00:35:07;102036.97;;;25.11
20490;BMP280;10403;54.092;12.122;2023-08-20T00:37:34;102033.59;;;25.07
20490;BMP280;10403;54.092;12.122;2023-08-20T00:40:03;102045.16;;;25.08
20490;BMP280;10403;54.092;12.122;2023-08-20T00:42:34;101999.56;;;24.77
20490;BMP280;10403;54.092;12.122;2023-08-20T00:45:01;102014.19;;;24.87
20490;BMP280;10403;54.092;12.122;2023-08-20T00:47:30;102062.47;;;25.18
20490;BMP280;10403;54.092;12.122;2023-08-20T00:49:58;101973.44;;;24.64
20490;BMP280;10403;54.092;12.122;2023-08-20T00:52:25;102002.69;;;24.85
20490;BMP280;10403;54.092;12.122;2023-08-20T00:54:53;102072.94;;;25.23
20490;BMP280;10403;54.092;12.122;2023-08-20T00:57:22;102002.06;;;24.80
20490;BMP280;10403;54.092;12.122;2023-08-20T00:59:50;102019.44;;;24.88
20490;BMP280;10403;54.092;12.122;2023-08-20T01:02:18;102000.22;;;24.80
20490;BMP280;10403;54.092;12.122;2023-08-20T01:04:47;101971.06;;;24.58
20490;BMP280;10403;54.092;12.122;2023-08-20T01:07:43;102019.06;;;24.79
20490;BMP280;10403;54.092;12.122;2023-08-20T01:10:55;102094.94;;;25.12
20490;BMP280;10403;54.092;12.122;2023-08-20T01:13:23;102023.16;;;24.68
20490;BMP280;10403;54.092;12.122;2023-08-20T01:15:51;101985.34;;;24.42
20490;BMP280;10403;54.092;12.122;2023-08-20T01:18:18;102032.06;;;24.69
20490;BMP280;10403;54.092;12.122;2023-08-20T01:21:04;102076.44;;;24.90
20490;BMP280;10403;54.092;12.122;2023-08-20T01:27:10;102080.81;;;24.93
20490;BMP280;10403;54.092;12.122;2023-08-20T01:29:41;102071.72;;;24.78
20490;BMP280;10403;54.092;12.122;2023-08-20T01:32:10;102092.03;;;24.82
20490;BMP280;10403;54.092;12.122;2023-08-20T01:34:39;102068.06;;;24.63
20490;BMP280;10403;54.092;12.122;2023-08-20T01:37:06;102074.19;;;24.65
20490;BMP280;10403;54.092;12.122;2023-08-20T01:39:33;102086.53;;;24.68
20490;BMP280;10403;54.092;12.122;2023-08-20T01:42:00;102093.53;;;24.70
20490;BMP280;10403;54.092;12.122;2023-08-20T01:44:27;102083.47;;;24.58
20490;BMP280;10403;54.092;12.122;2023-08-20T01:46:54;102082.94;;;24.52
20490;BMP280;10403;54.092;12.122;2023-08-20T01:49:22;102089.88;;;24.56
20490;BMP280;10403;54.092;12.122;2023-08-20T01:51:49;102093.78;;;24.49
20490;BMP280;10403;54.092;12.122;2023-08-20T01:54:16;102108.66;;;24.54
20490;BMP280;10403;54.092;12.122;2023-08-20T01:56:44;102103.63;;;24.48
20490;BMP280;10403;54.092;12.122;2023-08-20T01:59:11;102091.34;;;24.44
20490;BMP280;10403;54.092;12.122;2023-08-20T02:01:38;102094.25;;;24.40
20490;BMP280;10403;54.092;12.122;2023-08-20T02:04:05;102091.16;;;24.30
20490;BMP280;10403;54.092;12.122;2023-08-20T02:06:32;102096.38;;;24.33
20490;BMP280;10403;54.092;12.122;2023-08-20T02:08:59;102087.78;;;24.26
20490;BMP280;10403;54.092;12.122;2023-08-20T02:11:26;102103.47;;;24.34
20490;BMP280;10403;54.092;12.122;2023-08-20T02:13:54;102132.28;;;24.46
20490;BMP280;10403;54.092;12.122;2023-08-20T02:16:21;102137.31;;;24.52
20490;BMP280;10403;54.092;12.122;2023-08-20T02:18:48;102130.47;;;24.47
20490;BMP280;10403;54.092;12.122;2023-08-20T02:21:15;102117.84;;;24.31
20490;BMP280;10403;54.092;12.122;2023-08-20T02:23:42;102121.09;;;24.38
20490;BMP280;10403;54.092;12.122;2023-08-20T02:26:10;102141.88;;;24.50
20490;BMP280;10403;54.092;12.122;2023-08-20T02:28:37;102148.00;;;24.52
20490;BMP280;10403;54.092;12.122;2023-08-20T02:31:04;102161.41;;;24.52
20490;BMP280;10403;54.092;12.122;2023-08-20T02:33:32;102151.94;;;24.45
20490;BMP280;10403;54.092;12.122;2023-08-20T02:36:03;102155.69;;;24.41
20490;BMP280;10403;54.092;12.122;2023-08-20T02:38:31;102184.13;;;24.44
20490;BMP280;10403;54.092;12.122;2023-08-20T02:40:58;102144.59;;;24.13
20490;BMP280;10403;54.092;12.122;2023-08-20T02:43:26;102168.09;;;24.25
20490;BMP280;10403;54.092;12.122;2023-08-20T02:45:53;102165.84;;;24.16
20490;BMP280;10403;54.092;12.122;2023-08-20T02:48:20;102190.50;;;24.22
20490;BMP280;10403;54.092;12.122;2023-08-20T02:50:47;102146.97;;;24.00
20490;BMP280;10403;54.092;12.122;2023-08-20T02:53:15;102181.09;;;24.14
20490;BMP280;10403;54.092;12.122;2023-08-20T02:55:42;102167.44;;;24.01
20490;BMP280;10403;54.092;12.122;2023-08-20T02:58:09;102166.00;;;23.94
20490;BMP280;10403;54.092;12.122;2023-08-20T03:00:37;102165.13;;;23.93
20490;BMP280;10403;54.092;12.122;2023-08-20T03:03:04;102186.94;;;24.03
20490;BMP280;10403;54.092;12.122;2023-08-20T03:05:34;102183.53;;;23.99
20490;BMP280;10403;54.092;12.122;2023-08-20T03:08:02;102177.69;;;23.91
20490;BMP280;10403;54.092;12.122;2023-08-20T03:10:32;102162.09;;;23.82
20490;BMP280;10403;54.092;12.122;2023-08-20T03:13:01;102156.06;;;23.79
20490;BMP280;10403;54.092;12.122;2023-08-20T03:15:29;102177.88;;;23.88
20490;BMP280;10403;54.092;12.122;2023-08-20T03:17:57;102155.44;;;23.72
20490;BMP280;10403;54.092;12.122;2023-08-20T03:20:24;102166.88;;;23.76
20490;BMP280;10403;54.092;12.122;2023-08-20T03:22:51;102165.06;;;23.76
20490;BMP280;10403;54.092;12.122;2023-08-20T03:25:19;102185.50;;;23.77
20490;BMP280;10403;54.092;12.122;2023-08-20T03:27:46;102179.94;;;23.82
20490;BMP280;10403;54.092;12.122;2023-08-20T03:30:13;102170.78;;;23.69
20490;BMP280;10403;54.092;12.122;2023-08-20T03:32:41;102191.13;;;23.71
20490;BMP280;10403;54.092;12.122;2023-08-20T03:35:08;102107.94;;;23.21
20490;BMP280;10403;54.092;12.122;2023-08-20T03:37:36;102194.09;;;23.65
20490;BMP280;10403;54.092;12.122;2023-08-20T03:40:04;102182.16;;;23.53
20490;BMP280;10403;54.092;12.122;2023-08-20T03:42:31;102200.50;;;23.61
20490;BMP280;10403;54.092;12.122;2023-08-20T03:44:59;102185.00;;;23.49
20490;BMP280;10403;54.092;12.122;2023-08-20T03:47:26;102176.38;;;23.42
20490;BMP280;10403;54.092;12.122;2023-08-20T03:49:53;102191.34;;;23.46
20490;BMP280;10403;54.092;12.122;2023-08-20T03:52:20;102152.06;;;23.30
20490;BMP280;10403;54.092;12.122;2023-08-20T03:54:48;102186.78;;;23.50
20490;BMP280;10403;54.092;12.122;2023-08-20T03:57:15;102172.94;;;23.40
20490;BMP280;10403;54.092;12.122;2023-08-20T03:59:42;102169.53;;;23.37
20490;BMP280;10403;54.092;12.122;2023-08-20T04:02:09;102186.88;;;23.47
20490;BMP280;10403;54.092;12.122;2023-08-20T04:04:36;102184.22;;;23.47
20490;BMP280;10403;54.092;12.122;2023-08-20T04:07:04;102183.53;;;23.42
20490;BMP280;10403;54.092;12.122;2023-08-20T04:09:33;102173.25;;;23.33
20490;BMP280;10403;54.092;12.122;2023-08-20T04:12:00;102158.81;;;23.18
20490;BMP280;10403;54.092;12.122;2023-08-20T04:14:28;102182.44;;;23.27
20490;BMP280;10403;54.092;12.122;2023-08-20T04:16:55;102128.84;;;22.91
20490;BMP280;10403;54.092;12.122;2023-08-20T04:19:22;102222.66;;;23.43
20490;BMP280;10403;54.092;12.122;2023-08-20T04:21:49;102208.03;;;23.31
20490;BMP280;10403;54.092;12.122;2023-08-20T04:24:18;102190.72;;;23.21
20490;BMP280;10403;54.092;12.122;2023-08-20T04:26:45;102194.09;;;23.24
20490;BMP280;10403;54.092;12.122;2023-08-20T04:29:12;102206.94;;;23.37
20490;BMP280;10403;54.092;12.122;2023-08-20T04:31:39;102152.25;;;23.05
20490;BMP280;10403;54.092;12.122;2023-08-20T04:34:07;102193.41;;;23.21
20490;BMP280;10403;54.092;12.122;2023-08-20T04:36:35;102214.25;;;23.32
20490;BMP280;10403;54.092;12.122;2023-08-20T04:39:02;102199.50;;;23.23
20490;BMP280;10403;54.092;12.122;2023-08-20T04:41:29;102238.75;;;23.41
20490;BMP280;10403;54.092;12.122;2023-08-20T04:43:57;102224.81;;;23.35
20490;BMP280;10403;54.092;12.122;2023-08-20T04:46:24;102233.34;;;23.43
20490;BMP280;10403;54.092;12.122;2023-08-20T04:48:51;102238.69;;;23.43
20490;BMP280;10403;54.092;12.122;2023-08-20T04:51:19;102223.22;;;23.31
20490;BMP280;10403;54.092;12.122;2023-08-20T04:53:46;102164.34;;;22.93
20490;BMP280;10403;54.092;12.122;2023-08-20T04:56:14;102232.47;;;23.22
20490;BMP280;10403;54.092;12.122;2023-08-20T04:58:41;102187.38;;;22.96
20490;BMP280;10403;54.092;12.122;2023-08-20T05:01:08;102248.09;;;23.31
20490;BMP280;10403;54.092;12.122;2023-08-20T05:03:36;102238.63;;;23.24
20490;BMP280;10403;54.092;12.122;2023-08-20T05:06:03;102215.88;;;23.15
20490;BMP280;10403;54.092;12.122;2023-08-20T05:08:31;102223.69;;;23.20
20490;BMP280;10403;54.092;12.122;2023-08-20T05:10:58;102258.47;;;23.39
20490;BMP280;10403;54.092;12.122;2023-08-20T05:13:25;102226.22;;;23.23
20490;BMP280;10403;54.092;12.122;2023-08-20T05:15:53;102216.81;;;23.14
20490;BMP280;10403;54.092;12.122;2023-08-20T05:18:20;102256.75;;;23.38
20490;BMP280;10403;54.092;12.122;2023-08-20T05:20:47;102264.81;;;23.36
20490;BMP280;10403;54.092;12.122;2023-08-20T05:23:14;102265.63;;;23.38
20490;BMP280;10403;54.092;12.122;2023-08-20T05:25:41;102259.75;;;23.30
20490;BMP280;10403;54.092;12.122;2023-08-20T05:28:08;102213.88;;;23.00
20490;BMP280;10403;54.092;12.122;2023-08-20T05:30:36;102227.88;;;23.05
20490;BMP280;10403;54.092;12.122;2023-08-20T05:33:03;102256.19;;;23.09
20490;BMP280;10403;54.092;12.122;2023-08-20T05:35:31;102265.06;;;23.10
20490;BMP280;10403;54.092;12.122;2023-08-20T05:37:58;102265.31;;;23.04
20490;BMP280;10403;54.092;12.122;2023-08-20T05:40:25;102280.22;;;23.09
20490;BMP280;10403;54.092;12.122;2023-08-20T05:42:52;102275.38;;;22.97
20490;BMP280;10403;54.092;12.122;2023-08-20T05:45:19;102265.84;;;22.92
20490;BMP280;10403;54.092;12.122;2023-08-20T05:47:47;102311.25;;;23.12
20490;BMP280;10403;54.092;12.122;2023-08-20T05:50:14;102274.69;;;22.92
20490;BMP280;10403;54.092;12.122;2023-08-20T05:52:41;102302.13;;;23.17
20490;BMP280;10403;54.092;12.122;2023-08-20T05:55:08;102298.38;;;23.21
20490;BMP280;10403;54.092;12.122;2023-08-20T05:57:36;102282.16;;;23.06
20490;BMP280;10403;54.092;12.122;2023-08-20T06:00:05;102280.94;;;23.13
20490;BMP280;10403;54.092;12.122;2023-08-20T06:02:32;102281.50;;;23.21
20490;BMP280;10403;54.092;12.122;2023-08-20T06:05:00;102255.13;;;23.13
20490;BMP280;10403;54.092;12.122;2023-08-20T06:07:27;102282.13;;;23.28
20490;BMP280;10403;54.092;12.122;2023-08-20T06:09:55;102299.66;;;23.33
20490;BMP280;10403;54.092;12.122;2023-08-20T06:12:22;102267.66;;;23.11
20490;BMP280;10403;54.092;12.122;2023-08-20T06:14:50;102286.84;;;23.21
20490;BMP280;10403;54.092;12.122;2023-08-20T06:17:17;102310.41;;;23.32
20490;BMP280;10403;54.092;12.122;2023-08-20T06:19:45;102313.94;;;23.32
20490;BMP280;10403;54.092;12.122;2023-08-20T06:22:12;102249.50;;;22.99
20490;BMP280;10403;54.092;12.122;2023-08-20T06:24:39;102290.31;;;23.23
20490;BMP280;10403;54.092;12.122;2023-08-20T06:27:06;102282.63;;;23.15
20490;BMP280;10403;54.092;12.122;2023-08-20T06:29:34;102283.31;;;23.20
20490;BMP280;10403;54.092;12.122;2023-08-20T06:32:01;102271.06;;;23.15
20490;BMP280;10403;54.092;12.122;2023-08-20T06:34:29;102271.75;;;23.20
20490;BMP280;10403;54.092;12.122;2023-08-20T06:36:56;102282.91;;;23.30
20490;BMP280;10403;54.092;12.122;2023-08-20T06:39:23;102287.34;;;23.31
20490;BMP280;10403;54.092;12.122;2023-08-20T06:41:50;102299.88;;;23.29
20490;BMP280;10403;54.092;12.122;2023-08-20T06:44:18;102299.72;;;23.32
20490;BMP280;10403;54.092;12.122;2023-08-20T06:46:45;102263.13;;;23.13
20490;BMP280;10403;54.092;12.122;2023-08-20T06:49:12;102246.84;;;22.99
20490;BMP280;10403;54.092;12.122;2023-08-20T06:51:39;102302.81;;;23.43
20490;BMP280;10403;54.092;12.122;2023-08-20T06:54:07;102227.22;;;23.00
20490;BMP280;10403;54.092;12.122;2023-08-20T06:56:34;102292.34;;;23.38
20490;BMP280;10403;54.092;12.122;2023-08-20T06:59:02;102178.50;;;22.73
20490;BMP280;10403;54.092;12.122;2023-08-20T07:01:32;102277.38;;;23.34
20490;BMP280;10403;54.092;12.122;2023-08-20T07:03:59;102168.47;;;22.80
20490;BMP280;10403;54.092;12.122;2023-08-20T07:06:28;102181.28;;;22.92
20490;BMP280;10403;54.092;12.122;2023-08-20T07:08:56;102237.38;;;23.33
20490;BMP280;10403;54.092;12.122;2023-08-20T07:11:23;102199.72;;;23.18
20490;BMP280;10403;54.092;12.122;2023-08-20T07:13:50;102196.19;;;23.18
20490;BMP280;10403;54.092;12.122;2023-08-20T07:16:17;102280.34;;;23.69
20490;BMP280;10403;54.092;12.122;2023-08-20T07:18:44;102210.72;;;23.31
20490;BMP280;10403;54.092;12.122;2023-08-20T07:21:11;102240.94;;;23.53
20490;BMP280;10403;54.092;12.122;2023-08-20T07:23:39;102260.47;;;23.74
20490;BMP280;10403;54.092;12.122;2023-08-20T07:26:09;102265.53;;;23.80
20490;BMP280;10403;54.092;12.122;2023-08-20T07:28:37;102281.31;;;23.86
20490;BMP280;10403;54.092;12.122;2023-08-20T07:31:28;102256.59;;;23.81
20490;BMP280;10403;54.092;12.122;2023-08-20T07:33:58;102242.44;;;23.79
20490;BMP280;10403;54.092;12.122;2023-08-20T07:36:31;102249.19;;;23.88
20490;BMP280;10403;54.092;12.122;2023-08-20T07:39:00;102278.00;;;24.00
20490;BMP280;10403;54.092;12.122;2023-08-20T07:41:29;102231.16;;;23.73
20490;BMP280;10403;54.092;12.122;2023-08-20T07:43:56;102274.81;;;23.92
20490;BMP280;10403;54.092;12.122;2023-08-20T07:46:23;102256.88;;;23.75
20490;BMP280;10403;54.092;12.122;2023-08-20T07:48:50;102253.81;;;23.64
20490;BMP280;10403;54.092;12.122;2023-08-20T07:51:17;102225.28;;;23.44
20490;BMP280;10403;54.092;12.122;2023-08-20T07:53:45;102304.16;;;23.93
20490;BMP280;10403;54.092;12.122;2023-08-20T07:56:12;102305.91;;;23.94
20490;BMP280;10403;54.092;12.122;2023-08-20T07:58:39;102324.31;;;24.01
20490;BMP280;10403;54.092;12.122;2023-08-20T08:01:06;102299.22;;;23.84
20490;BMP280;10403;54.092;12.122;2023-08-20T08:03:34;102341.16;;;24.03
20490;BMP280;10403;54.092;12.122;2023-08-20T08:06:02;102321.81;;;23.97
20490;BMP280;10403;54.092;12.122;2023-08-20T08:08:29;102307.63;;;23.95
20490;BMP280;10403;54.092;12.122;2023-08-20T08:10:56;102312.13;;;24.14
20490;BMP280;10403;54.092;12.122;2023-08-20T08:13:23;102315.34;;;24.22
20490;BMP280;10403;54.092;12.122;2023-08-20T08:15:51;102322.16;;;24.29
20490;BMP280;10403;54.092;12.122;2023-08-20T08:18:21;102290.00;;;24.10
20490;BMP280;10403;54.092;12.122;2023-08-20T08:20:49;102267.03;;;24.06
20490;BMP280;10403;54.092;12.122;2023-08-20T08:23:16;102303.28;;;24.32
20490;BMP280;10403;54.092;12.122;2023-08-20T08:25:43;102247.72;;;23.99
20490;BMP280;10403;54.092;12.122;2023-08-20T08:28:10;102278.38;;;24.11
20490;BMP280;10403;54.092;12.122;2023-08-20T08:30:38;102312.13;;;24.14
20490;BMP280;10403;54.092;12.122;2023-08-20T08:33:07;102334.59;;;24.10
20490;BMP280;10403;54.092;12.122;2023-08-20T08:35:34;102318.31;;;23.95
20490;BMP280;10403;54.092;12.122;2023-08-20T08:38:01;102332.22;;;24.04
20490;BMP280;10403;54.092;12.122;2023-08-20T08:40:30;102318.13;;;23.80
20490;BMP280;10403;54.092;12.122;2023-08-20T08:42:58;102337.81;;;23.79
20490;BMP280;10403;54.092;12.122;2023-08-20T08:45:26;102318.94;;;23.61
20490;BMP280;10403;54.092;12.122;2023-08-20T08:47:54;102329.97;;;23.74
20490;BMP280;10403;54.092;12.122;2023-08-20T08:50:22;102288.97;;;23.55
20490;BMP280;10403;54.092;12.122;2023-08-20T08:52:51;102349.47;;;23.96
20490;BMP280;10403;54.092;12.122;2023-08-20T08:55:20;102333.69;;;23.90
20490;BMP280;10403;54.092;12.122;2023-08-20T08:57:48;102357.88;;;24.08
20490;BMP280;10403;54.092;12.122;2023-08-20T09:00:15;102357.59;;;24.14
20490;BMP280;10403;54.092;12.122;2023-08-20T09:02:42;102360.00;;;24.20
20490;BMP280;10403;54.092;12.122;2023-08-20T09:05:13;102354.63;;;24.20
20490;BMP280;10403;54.092;12.122;2023-08-20T09:07:44;102382.72;;;24.30
20490;BMP280;10403;54.092;12.122;2023-08-20T09:10:12;102371.34;;;24.26
20490;BMP280;10403;54.092;12.122;2023-08-20T09:12:39;102356.28;;;24.24
20490;BMP280;10403;54.092;12.122;2023-08-20T09:15:11;102367.22;;;24.38
20490;BMP280;10403;54.092;12.122;2023-08-20T09:17:41;102354.50;;;24.43
20490;BMP280;10403;54.092;12.122;2023-08-20T09:20:09;102344.72;;;24.42
20490;BMP280;10403;54.092;12.122;2023-08-20T09:22:37;102353.75;;;24.40
20490;BMP280;10403;54.092;12.122;2023-08-20T09:25:05;102362.09;;;24.52
20490;BMP280;10403;54.092;12.122;2023-08-20T09:27:39;102367.75;;;24.46
20490;BMP280;10403;54.092;12.122;2023-08-20T09:30:10;102364.69;;;24.35
20490;BMP280;10403;54.092;12.122;2023-08-20T09:32:44;102359.34;;;24.15
20490;BMP280;10403;54.092;12.122;2023-08-20T09:35:18;102374.25;;;24.00
20490;BMP280;10403;54.092;12.122;2023-08-20T09:37:46;102401.69;;;24.05
20490;BMP280;10403;54.092;12.122;2023-08-20T09:40:13;102388.59;;;23.99
20490;BMP280;10403;54.092;12.122;2023-08-20T09:42:41;102384.06;;;23.99
20490;BMP280;10403;54.092;12.122;2023-08-20T09:45:10;102393.44;;;24.10
20490;BMP280;10403;54.092;12.122;2023-08-20T09:47:39;102404.59;;;24.19
20490;BMP280;10403;54.092;12.122;2023-08-20T09:50:11;102387.03;;;24.14
20490;BMP280;10403;54.092;12.122;2023-08-20T09:52:46;102406.16;;;24.25
20490;BMP280;10403;54.092;12.122;2023-08-20T09:55:21;102396.72;;;24.16
20490;BMP280;10403;54.092;12.122;2023-08-20T09:57:50;102410.59;;;24.26
20490;BMP280;10403;54.092;12.122;2023-08-20T10:00:19;102370.47;;;24.06
20490;BMP280;10403;54.092;12.122;2023-08-20T10:02:49;102386.09;;;24.15
20490;BMP280;10403;54.092;12.122;2023-08-20T10:05:16;102400.06;;;24.21
20490;BMP280;10403;54.092;12.122;2023-08-20T10:07:45;102394.84;;;24.18
20490;BMP280;10403;54.092;12.122;2023-08-20T10:10:13;102389.75;;;24.12
20490;BMP280;10403;54.092;12.122;2023-08-20T10:12:41;102381.81;;;24.11
20490;BMP280;10403;54.092;12.122;2023-08-20T10:15:10;102407.75;;;24.29
20490;BMP280;10403;54.092;12.122;2023-08-20T10:17:39;102394.75;;;24.40
20490;BMP280;10403;54.092;12.122;2023-08-20T10:20:08;102391.75;;;24.48
20490;BMP280;10403;54.092;12.122;2023-08-20T10:22:39;102379.31;;;24.47
20490;BMP280;10403;54.092;12.122;2023-08-20T10:25:09;102375.09;;;24.41
20490;BMP280;10403;54.092;12.122;2023-08-20T10:27:40;102410.81;;;24.59
20490;BMP280;10403;54.092;12.122;2023-08-20T10:30:17;102374.66;;;24.50
20490;BMP280;10403;54.092;12.122;2023-08-20T10:32:51;102401.38;;;24.70
20490;BMP280;10403;54.092;12.122;2023-08-20T10:35:46;102394.81;;;24.78
20490;BMP280;10403;54.092;12.122;2023-08-20T10:38:15;102364.31;;;24.61
20490;BMP280;10403;54.092;12.122;2023-08-20T10:40:59;102394.19;;;24.71
20490;BMP280;10403;54.092;12.122;2023-08-20T10:43:31;102391.75;;;24.66
20490;BMP280;10403;54.092;12.122;2023-08-20T10:46:17;102384.50;;;24.68
20490;BMP280;10403;54.092;12.122;2023-08-20T10:48:53;102386.78;;;24.78
20490;BMP280;10403;54.092;12.122;2023-08-20T10:51:32;102368.09;;;24.76
20490;BMP280;10403;54.092;12.122;2023-08-20T10:59:26;102381.25;;;24.81
20490;BMP280;10403;54.092;12.122;2023-08-20T11:01:56;102377.00;;;24.77
20490;BMP280;10403;54.092;12.122;2023-08-20T11:04:33;102368.81;;;24.80
20490;BMP280;10403;54.092;12.122;2023-08-20T11:07:00;102363.75;;;24.74
20490;BMP280;10403;54.092;12.122;2023-08-20T11:09:30;102381.03;;;24.85
20490;BMP280;10403;54.092;12.122;2023-08-20T11:11:58;102368.97;;;24.77
20490;BMP280;10403;54.092;12.122;2023-08-20T11:14:26;102365.25;;;24.79
20490;BMP280;10403;54.092;12.122;2023-08-20T11:16:53;102371.97;;;24.88
20490;BMP280;10403;54.092;12.122;2023-08-20T11:19:22;102376.31;;;24.90
20490;BMP280;10403;54.092;12.122;2023-08-20T11:21:51;102375.09;;;24.97
20490;BMP280;10403;54.092;12.122;2023-08-20T11:24:18;102358.22;;;24.97
20490;BMP280;10403;54.092;12.122;2023-08-20T11:26:47;102375.56;;;25.07
20490;BMP280;10403;54.092;12.122;2023-08-20T11:29:16;102367.34;;;25.10
20490;BMP280;10403;54.092;12.122;2023-08-20T11:31:49;102382.16;;;25.17
20490;BMP280;10403;54.092;12.122;2023-08-20T11:34:19;102377.59;;;25.19
20490;BMP280;10403;54.092;12.122;2023-08-20T11:36:46;102369.88;;;25.13
20490;BMP280;10403;54.092;12.122;2023-08-20T11:39:15;102382.28;;;25.16
20490;BMP280;10403;54.092;12.122;2023-08-20T11:41:44;102358.22;;;24.97
20490;BMP280;10403;54.092;12.122;2023-08-20T11:44:20;102383.34;;;25.12
20490;BMP280;10403;54.092;12.122;2023-08-20T11:46:49;102379.94;;;25.08
20490;BMP280;10403;54.092;12.122;2023-08-20T11:49:16;102385.22;;;25.10
20490;BMP280;10403;54.092;12.122;2023-08-20T11:51:52;102383.16;;;25.16
20490;BMP280;10403;54.092;12.122;2023-08-20T11:54:19;102386.50;;;25.20
20490;BMP280;10403;54.092;12.122;2023-08-20T11:56:51;102377.53;;;25.21
20490;BMP280;10403;54.092;12.122;2023-08-20T11:59:21;102338.66;;;24.95
20490;BMP280;10403;54.092;12.122;2023-08-20T12:02:11;102373.84;;;25.23
20490;BMP280;10403;54.092;12.122;2023-08-20T12:04:38;102389.06;;;25.40
20490;BMP280;10403;54.092;12.122;2023-08-20T12:07:10;102380.09;;;25.41
20490;BMP280;10403;54.092;12.122;2023-08-20T12:09:40;102358.25;;;25.31
20490;BMP280;10403;54.092;12.122;2023-08-20T12:12:09;102397.53;;;25.50
20490;BMP280;10403;54.092;12.122;2023-08-20T12:14:37;102357.31;;;25.32
20490;BMP280;10403;54.092;12.122;2023-08-20T12:17:04;102374.50;;;25.46
20490;BMP280;10403;54.092;12.122;2023-08-20T12:19:31;102378.81;;;25.48
20490;BMP280;10403;54.092;12.122;2023-08-20T12:21:58;102361.81;;;25.49
20490;BMP280;10403;54.092;12.122;2023-08-20T12:24:26;102373.25;;;25.53
20490;BMP280;10403;54.092;12.122;2023-08-20T12:26:53;102366.00;;;25.55
20490;BMP280;10403;54.092;12.122;2023-08-20T12:29:20;102386.06;;;25.65
20490;BMP280;10403;54.092;12.122;2023-08-20T12:31:47;102385.28;;;25.63
20490;BMP280;10403;54.092;12.122;2023-08-20T12:34:14;102375.13;;;25.51
20490;BMP280;10403;54.092;12.122;2023-08-20T12:39:52;102381.78;;;25.61
20490;BMP280;10403;54.092;12.122;2023-08-20T12:42:19;102376.47;;;25.59
20490;BMP280;10403;54.092;12.122;2023-08-20T12:44:46;102378.34;;;25.57
20490;BMP280;10403;54.092;12.122;2023-08-20T12:50:22;102358.19;;;25.50
20490;BMP280;10403;54.092;12.122;2023-08-20T12:52:54;102360.31;;;25.43
20490;BMP280;10403;54.092;12.122;2023-08-20T12:55:28;102376.16;;;25.48
20490;BMP280;10403;54.092;12.122;2023-08-20T13:02:26;102381.16;;;25.56
20490;BMP280;10403;54.092;12.122;2023-08-20T13:05:28;102363.53;;;25.50
20490;BMP280;10403;54.092;12.122;2023-08-20T13:08:26;102383.72;;;25.57
20490;BMP280;10403;54.092;12.122;2023-08-20T13:11:06;102375.13;;;25.51
20490;BMP280;10403;54.092;12.122;2023-08-20T13:13:51;102381.03;;;25.57
20490;BMP280;10403;54.092;12.122;2023-08-20T13:16:51;102376.94;;;25.50
20490;BMP280;10403;54.092;12.122;2023-08-20T13:19:22;102380.94;;;25.60
20490;BMP280;10403;54.092;12.122;2023-08-20T13:22:02;102372.47;;;25.68
20490;BMP280;10403;54.092;12.122;2023-08-20T13:25:07;102375.97;;;25.70
20490;BMP280;10403;54.092;12.122;2023-08-20T13:27:44;102375.09;;;25.69
20490;BMP280;10403;54.092;12.122;2023-08-20T13:30:43;102378.31;;;25.76
20490;BMP280;10403;54.092;12.122;2023-08-20T13:33:22;102383.53;;;25.79
20490;BMP280;10403;54.092;12.122;2023-08-20T13:35:58;102379.09;;;25.78
20490;BMP280;10403;54.092;12.122;2023-08-20T13:38:51;102363.88;;;25.78
20490;BMP280;10403;54.092;12.122;2023-08-20T13:41:37;102357.72;;;25.76
20490;BMP280;10403;54.092;12.122;2023-08-20T13:44:25;102360.03;;;25.84
20490;BMP280;10403;54.092;12.122;2023-08-20T13:47:07;102365.84;;;25.92
20490;BMP280;10403;54.092;12.122;2023-08-20T13:50:05;102365.69;;;25.95
20490;BMP280;10403;54.092;12.122;2023-08-20T13:52:43;102366.47;;;25.97
20490;BMP280;10403;54.092;12.122;2023-08-20T13:55:15;102364.72;;;25.96
20490;BMP280;10403;54.092;12.122;2023-08-20T13:57:50;102360.63;;;25.89
20490;BMP280;10403;54.092;12.122;2023-08-20T14:00:58;102347.13;;;25.75
20490;BMP280;10403;54.092;12.122;2023-08-20T14:03:45;102327.09;;;25.65
20490;BMP280;10403;54.092;12.122;2023-08-20T14:06:26;102334.34;;;25.63
20490;BMP280;10403;54.092;12.122;2023-08-20T14:09:04;102325.50;;;25.61
20490;BMP280;10403;54.092;12.122;2023-08-20T14:12:00;102364.59;;;25.82
20490;BMP280;10403;54.092;12.122;2023-08-20T14:15:35;102326.88;;;25.51
20490;BMP280;10403;54.092;12.122;2023-08-20T14:18:46;102332.56;;;25.44
20490;BMP280;10403;54.092;12.122;2023-08-20T14:21:44;102339.00;;;25.58